You are listening to:
KPOU Ground/Tower - Poughkeepsie, New York, United States

KPOU 261153Z 22005KT 10SM CLR 15/13 A2966 RMK AO2 SLP040 T01500128 10161 20139 51020

If stream doesn't start automatically press the play button
If stream stops then reload player then press play